Aérodrome :
LOGIN :

S'inscrire | Disclaimer

   EN    FR    IT 

 










Légende :    VFR   VFR Marginal   IFR   IFR Intensif   IFR Très Intensif
Visi : 
Plafond : 
>= 8 km
>= 3000ft
5 à 8 km
1000 à 3000 ft
1500m à 5 km
500 à 1000 ft
800 à 1500m
200 à 500 ft
< 800m
< 200 ft
Symboles :   Orages  Brouillard  Fortes neiges  Fortes précipitations  Vent > 20 kt
SIGMETs :   Divers  Orages  Givrage  Turbulence  Onde Orograph.  Cendres Volcan.






- Altitude de l'aérodrome : 194 ft


EBCV - Chièvres

DERNIER METAR :
  • 190225Z AUTO 20018KT 9999 OVC012/// 05/03 Q1015 GRN

METARs EXPIRÉS :
  • 190155Z AUTO 21018KT 9999 -RA OVC014/// 04/03 Q1015 GRN
  • 190144Z AUTO 20018KT 4400 -RA OVC016/// 04/03 Q1016 GRN
  • 190133Z AUTO 20018KT 9999 -RA SCT015/// OVC031/// 04/02 Q1016 WHT
  • 190055Z AUTO 20017KT 9999 BKN035/// OVC092/// 04/02 Q1017 BLU
  • 190025Z AUTO 20016KT 9999 FEW031/// 04/02 Q1017 BLU
  • 182355Z AUTO 20016KT 9999 BKN170/// 04/01 Q1018 BLU
  • 182325Z AUTO 20015KT 9999 FEW160/// 04/01 Q1018 BLU

TAF TAF EBCV
Valide du 18 à 19h jusqu'au 19 à 07h UTC


181541Z 1819/1907 22010G20KT 9999 SCT020 SCT035
TEMPO 1819/1822 SCT012 BKN035
BECMG 1900/1902 21015G30KT 6000 -RA SCT010 BKN015 BY EBWM



MET'MAP, la Météo Aéronautique d'un coup d'oeil ! - Copyright ORBIFLY Décembre 2007 - Disclaimer

ORBIFLY MET'MAP TEAM :

Programmation & Développement : Alexandra Zaïnal
Sur une idée originale de : Baudouin d'Aumeries
Assistance à la programmation : Marc-Olivier Méhu
Soutien technique & logistique : Manuel Goepfert

Contact : metmap@orbifly.com




SOURCES & CREDITS :

   NOAA